createdAt,value
2018-05-29T00:00:27.606Z,13.20
2018-05-29T00:02:57.034Z,12.57
2018-05-29T00:05:26.830Z,13.10
2018-05-29T00:08:03.850Z,12.53
2018-05-29T00:10:35.754Z,12.50
2018-05-29T00:13:09.511Z,13.13
2018-05-29T00:15:39.930Z,13.80
2018-05-29T00:18:11.888Z,12.97
2018-05-29T00:20:42.094Z,14.07
2018-05-29T00:23:11.605Z,13.77
2018-05-29T00:25:41.212Z,13.60
2018-05-29T00:28:12.022Z,13.23
2018-05-29T00:30:42.484Z,13.27
2018-05-29T00:33:12.284Z,13.27
2018-05-29T00:35:41.430Z,13.40
2018-05-29T00:38:12.972Z,13.43
2018-05-29T00:40:42.942Z,12.80
2018-05-29T00:43:12.350Z,13.60
2018-05-29T00:45:50.939Z,14.30
2018-05-29T00:48:20.467Z,14.47
2018-05-29T00:53:33.430Z,13.33
2018-05-29T00:56:04.235Z,14.00
2018-05-29T00:58:36.315Z,15.03
2018-05-29T01:01:06.310Z,14.93
2018-05-29T01:03:35.491Z,13.93
2018-05-29T01:06:05.926Z,16.07
2018-05-29T01:08:35.438Z,17.10
2018-05-29T01:11:16.147Z,17.03
2018-05-29T01:13:46.291Z,17.43
2018-05-29T01:16:17.992Z,17.73
2018-05-29T01:18:46.952Z,18.47
2018-05-29T01:21:17.316Z,17.20
2018-05-29T01:23:46.505Z,16.37
2018-05-29T01:26:15.532Z,18.43
2018-05-29T01:28:44.606Z,18.20
2018-05-29T01:31:14.722Z,18.77
2018-05-29T01:33:43.917Z,18.87
2018-05-29T01:36:13.286Z,17.80
2018-05-29T01:38:55.617Z,19.03
2018-05-29T01:41:25.858Z,18.17
2018-05-29T01:43:55.191Z,19.77
2018-05-29T01:46:28.738Z,19.33
2018-05-29T01:48:58.053Z,19.17
2018-05-29T01:51:27.847Z,18.40
2018-05-29T01:53:58.169Z,19.30
2018-05-29T01:56:29.080Z,19.93
2018-05-29T01:58:58.839Z,19.67
2018-05-29T02:01:35.349Z,19.23
2018-05-29T02:04:05.318Z,20.47
2018-05-29T02:06:38.966Z,19.47
2018-05-29T02:09:08.232Z,20.13
2018-05-29T02:11:39.316Z,20.20
2018-05-29T02:14:09.831Z,20.43
2018-05-29T02:16:39.686Z,21.47
2018-05-29T02:19:08.782Z,20.33
2018-05-29T02:21:38.853Z,20.87
2018-05-29T02:24:08.078Z,20.73
2018-05-29T02:26:37.071Z,21.27
2018-05-29T02:29:22.578Z,19.37
2018-05-29T02:31:51.597Z,21.00
2018-05-29T02:34:21.792Z,19.67
2018-05-29T02:36:51.294Z,18.17
2018-05-29T02:39:25.622Z,18.87
2018-05-29T02:42:08.515Z,19.77
2018-05-29T02:44:37.869Z,19.87
2018-05-29T02:47:07.327Z,20.17
2018-05-29T02:49:37.866Z,20.30
2018-05-29T02:52:08.662Z,20.40
2018-05-29T02:54:38.662Z,20.53
2018-05-29T02:57:08.248Z,20.07
2018-05-29T02:59:38.206Z,21.10
2018-05-29T03:02:07.696Z,22.47
2018-05-29T03:04:37.834Z,21.57
2018-05-29T03:07:08.770Z,22.33
2018-05-29T03:09:38.020Z,21.97
2018-05-29T03:12:16.075Z,23.20
2018-05-29T03:14:45.517Z,21.67
2018-05-29T03:17:16.212Z,20.80
2018-05-29T03:19:45.614Z,20.97
2018-05-29T03:22:14.817Z,20.70
2018-05-29T03:24:43.753Z,20.00
2018-05-29T03:27:13.782Z,20.37
2018-05-29T03:29:42.776Z,19.03
2018-05-29T03:32:12.002Z,19.77
2018-05-29T03:34:41.389Z,19.33
2018-05-29T03:37:12.152Z,20.63
2018-05-29T03:39:41.363Z,22.93
2018-05-29T03:42:10.749Z,21.30
2018-05-29T03:44:48.068Z,21.10
2018-05-29T03:47:17.370Z,21.03
2018-05-29T03:49:48.983Z,23.13
2018-05-29T03:52:19.273Z,21.90
2018-05-29T03:54:48.551Z,22.70
2018-05-29T03:57:17.914Z,22.07
2018-05-29T03:59:47.826Z,21.97
2018-05-29T04:02:16.948Z,19.77
2018-05-29T04:04:47.591Z,19.07
2018-05-29T04:07:16.629Z,20.43
2018-05-29T04:09:45.848Z,19.37
2018-05-29T04:12:15.662Z,20.60
2018-05-29T04:14:45.221Z,20.80
2018-05-29T04:17:14.422Z,21.70
2018-05-29T04:19:43.978Z,20.17
2018-05-29T04:22:13.714Z,20.83
2018-05-29T04:24:43.468Z,21.37
2018-05-29T04:27:12.929Z,22.30
2018-05-29T04:29:43.086Z,21.93
2018-05-29T04:32:21.110Z,21.83
2018-05-29T04:34:52.725Z,24.10
2018-05-29T04:37:21.842Z,23.90
2018-05-29T04:39:51.731Z,22.47
2018-05-29T04:42:20.997Z,22.00
2018-05-29T04:44:50.830Z,20.77
2018-05-29T04:47:19.863Z,19.73
2018-05-29T04:49:50.549Z,18.63
2018-05-29T04:52:27.762Z,18.63
2018-05-29T04:54:57.031Z,20.20
2018-05-29T04:57:38.124Z,18.23
2018-05-29T05:00:13.549Z,19.00
2018-05-29T05:02:43.356Z,18.63
2018-05-29T05:05:13.210Z,20.23
2018-05-29T05:07:42.998Z,19.00
2018-05-29T05:10:17.770Z,19.87
2018-05-29T05:12:47.875Z,18.83
2018-05-29T05:15:16.803Z,20.40
2018-05-29T05:17:46.974Z,20.33
2018-05-29T05:20:16.787Z,19.33
2018-05-29T05:22:46.689Z,20.77
2018-05-29T05:25:17.334Z,18.77
2018-05-29T05:27:46.642Z,18.47
2018-05-29T05:30:15.752Z,16.47
2018-05-29T05:32:45.015Z,16.60
2018-05-29T05:35:14.867Z,17.57
2018-05-29T05:37:43.967Z,17.50
2018-05-29T05:40:17.375Z,17.27
2018-05-29T05:42:50.239Z,15.70
2018-05-29T05:45:20.209Z,16.43
2018-05-29T05:47:49.382Z,16.03
2018-05-29T05:50:20.391Z,14.90
2018-05-29T05:58:06.803Z,13.47
2018-05-29T06:00:38.657Z,13.63
2018-05-29T06:03:13.862Z,13.47
2018-05-29T06:05:43.147Z,11.67
2018-05-29T06:08:12.425Z,12.23
2018-05-29T06:10:41.920Z,12.30
2018-05-29T06:13:10.968Z,13.33
2018-05-29T06:15:39.961Z,13.43
2018-05-29T06:18:09.173Z,12.00
2018-05-29T06:20:38.304Z,12.50
2018-05-29T06:23:07.607Z,12.10
2018-05-29T06:25:37.347Z,12.40
2018-05-29T06:28:06.737Z,11.53
2018-05-29T06:30:36.844Z,12.73
2018-05-29T06:33:06.686Z,12.17
2018-05-29T06:35:35.713Z,13.13
2018-05-29T06:38:06.289Z,14.23
2018-05-29T06:44:09.061Z,13.17
2018-05-29T06:46:38.912Z,13.07
2018-05-29T06:49:08.837Z,11.93
2018-05-29T06:51:37.903Z,12.90
2018-05-29T06:54:07.974Z,11.87
2018-05-29T06:56:37.013Z,13.07
2018-05-29T06:59:06.862Z,12.57
2018-05-29T07:01:38.413Z,13.60
2018-05-29T07:06:40.889Z,13.17
2018-05-29T07:09:10.014Z,12.30
2018-05-29T07:11:39.730Z,12.03
2018-05-29T07:14:09.629Z,12.40
2018-05-29T07:16:39.219Z,12.63
2018-05-29T07:19:08.236Z,12.93
2018-05-29T07:21:38.442Z,12.43
2018-05-29T07:24:17.909Z,12.80
2018-05-29T07:26:47.231Z,12.50
2018-05-29T07:29:18.247Z,11.63
2018-05-29T07:31:47.524Z,12.73
2018-05-29T07:34:18.573Z,12.13
2018-05-29T07:36:49.595Z,10.73
2018-05-29T07:39:20.528Z,11.20
2018-05-29T07:41:52.530Z,10.13
2018-05-29T07:44:31.654Z,10.63
2018-05-29T07:47:09.693Z,10.67
2018-05-29T07:49:41.082Z,11.37
2018-05-29T07:52:11.095Z,9.90
2018-05-29T07:54:40.389Z,10.80
2018-05-29T07:57:09.736Z,9.40
2018-05-29T07:59:38.977Z,9.97
2018-05-29T08:02:17.133Z,9.63
2018-05-29T08:04:47.244Z,9.13
2018-05-29T08:07:16.926Z,9.10
2018-05-29T08:09:47.467Z,9.57
2018-05-29T08:12:17.307Z,10.50
2018-05-29T08:14:47.262Z,9.87
2018-05-29T08:17:21.858Z,10.20
2018-05-29T08:19:51.576Z,10.00
2018-05-29T08:22:20.561Z,10.57
2018-05-29T08:24:51.353Z,11.07
2018-05-29T08:27:24.737Z,10.80
2018-05-29T08:29:53.844Z,11.47
2018-05-29T08:32:23.866Z,11.03
2018-05-29T08:34:53.074Z,11.43
2018-05-29T08:37:23.484Z,11.40
2018-05-29T08:39:53.114Z,11.03
2018-05-29T08:42:22.994Z,10.80
2018-05-29T08:44:51.918Z,11.20
2018-05-29T08:47:21.628Z,11.87
2018-05-29T08:49:57.478Z,10.73
2018-05-29T08:52:26.888Z,9.77
2018-05-29T08:54:56.730Z,9.90
2018-05-29T08:57:26.355Z,10.60
2018-05-29T08:59:56.101Z,11.17
2018-05-29T09:02:27.964Z,10.00
2018-05-29T09:04:58.720Z,11.43
2018-05-29T09:07:29.547Z,11.80
2018-05-29T09:09:59.427Z,11.63
2018-05-29T09:12:28.420Z,11.60
2018-05-29T09:14:58.163Z,10.97
2018-05-29T09:17:27.658Z,10.77
2018-05-29T09:20:00.532Z,11.70
2018-05-29T09:22:31.491Z,10.70
2018-05-29T09:25:04.373Z,11.67
2018-05-29T09:27:34.122Z,10.70
2018-05-29T09:30:03.598Z,11.03
2018-05-29T09:32:33.818Z,11.20
2018-05-29T09:35:03.997Z,11.40
2018-05-29T09:37:33.264Z,12.17
2018-05-29T09:40:03.466Z,11.60
2018-05-29T09:42:34.553Z,12.13
2018-05-29T09:45:05.571Z,11.40
2018-05-29T09:47:41.202Z,12.07
2018-05-29T09:50:12.470Z,11.20
2018-05-29T09:52:49.854Z,11.93
2018-05-29T09:55:19.788Z,11.23
2018-05-29T09:57:48.894Z,11.70
2018-05-29T10:00:22.232Z,11.13
2018-05-29T10:02:51.516Z,11.23
2018-05-29T10:05:21.930Z,10.87
2018-05-29T10:07:52.417Z,10.97
2018-05-29T10:10:22.267Z,11.17
2018-05-29T10:12:52.010Z,10.47
2018-05-29T10:15:21.489Z,10.40
2018-05-29T10:17:51.452Z,10.23
2018-05-29T10:20:21.446Z,9.27
2018-05-29T10:22:50.832Z,10.03
2018-05-29T10:25:27.796Z,10.30
2018-05-29T10:28:06.298Z,9.60
2018-05-29T10:30:36.190Z,9.57
2018-05-29T10:33:06.337Z,9.77
2018-05-29T10:35:36.070Z,9.87
2018-05-29T10:40:49.647Z,8.97
2018-05-29T10:43:18.969Z,9.20
2018-05-29T10:45:49.009Z,10.63
2018-05-29T10:48:21.574Z,9.03
2018-05-29T10:50:51.885Z,8.97
2018-05-29T10:53:24.791Z,8.17
2018-05-29T10:55:58.163Z,8.33
2018-05-29T10:58:29.317Z,7.60
2018-05-29T11:00:59.990Z,7.20
2018-05-29T11:03:31.596Z,7.10
2018-05-29T11:06:01.893Z,7.03
2018-05-29T11:08:31.310Z,6.50
2018-05-29T11:11:05.135Z,6.90
2018-05-29T11:13:36.773Z,7.50
2018-05-29T11:16:12.652Z,7.13
2018-05-29T11:18:51.354Z,6.60
2018-05-29T11:21:22.883Z,6.70
2018-05-29T11:23:53.131Z,6.73
2018-05-29T11:26:29.401Z,5.80
2018-05-29T11:28:59.022Z,6.00
2018-05-29T11:31:37.147Z,5.50
2018-05-29T11:34:09.209Z,5.43
2018-05-29T11:36:41.548Z,5.73
2018-05-29T11:39:11.909Z,5.57
2018-05-29T11:41:43.944Z,5.53
2018-05-29T11:44:13.965Z,5.60
2018-05-29T11:46:45.837Z,5.53
2018-05-29T11:49:17.961Z,5.47
2018-05-29T11:51:50.833Z,5.60
2018-05-29T11:54:22.634Z,5.20
2018-05-29T11:56:52.454Z,5.23
2018-05-29T11:59:22.824Z,5.20
2018-05-29T12:01:53.801Z,5.57
2018-05-29T12:04:23.181Z,5.10
2018-05-29T12:06:53.018Z,5.47
2018-05-29T12:09:23.354Z,5.23
2018-05-29T12:11:54.118Z,4.73
2018-05-29T12:14:25.412Z,4.90
2018-05-29T12:16:56.720Z,5.17
2018-05-29T12:19:29.185Z,4.57
2018-05-29T12:21:59.475Z,4.63
2018-05-29T12:24:30.200Z,5.17
2018-05-29T12:27:02.335Z,6.10
2018-05-29T12:29:44.666Z,5.60
2018-05-29T12:32:17.999Z,5.30
2018-05-29T12:34:49.966Z,4.87
2018-05-29T12:37:28.457Z,5.40
2018-05-29T12:40:05.367Z,6.20
2018-05-29T12:42:35.346Z,5.23
2018-05-29T12:45:06.318Z,5.97
2018-05-29T12:47:36.022Z,6.80
2018-05-29T12:50:07.313Z,6.07
2018-05-29T12:52:38.897Z,5.90
2018-05-29T12:55:09.554Z,6.00
2018-05-29T12:57:39.044Z,9.53
2018-05-29T13:00:08.370Z,8.37
2018-05-29T13:05:44.175Z,12.37
2018-05-29T13:08:13.919Z,13.43
2018-05-29T13:10:44.791Z,9.87
2018-05-29T13:13:18.302Z,10.90
2018-05-29T13:15:48.460Z,10.17
2018-05-29T13:18:19.408Z,9.10
2018-05-29T13:20:49.429Z,8.80
2018-05-29T13:23:19.447Z,9.93
2018-05-29T13:25:50.212Z,8.40
2018-05-29T13:28:20.338Z,8.40
2018-05-29T13:30:51.012Z,8.47
2018-05-29T13:33:23.957Z,7.90
2018-05-29T13:35:55.694Z,7.83
2018-05-29T13:38:26.219Z,7.00
2018-05-29T13:40:56.399Z,7.10
2018-05-29T13:43:29.185Z,6.20
2018-05-29T13:46:00.589Z,6.57
2018-05-29T13:48:31.444Z,6.20
2018-05-29T13:51:03.463Z,5.90
2018-05-29T13:53:38.500Z,6.17
2018-05-29T13:56:14.324Z,5.87
2018-05-29T13:58:49.362Z,6.27
2018-05-29T14:01:19.569Z,5.53
2018-05-29T14:03:50.164Z,5.10
2018-05-29T14:06:20.646Z,5.60
2018-05-29T14:08:52.298Z,5.83
2018-05-29T14:11:32.230Z,5.77
2018-05-29T14:14:19.815Z,6.13
2018-05-29T14:17:08.165Z,5.57
2018-05-29T14:19:56.513Z,5.90
2018-05-29T14:22:45.446Z,6.93
2018-05-29T14:25:27.278Z,8.20
2018-05-29T14:31:08.525Z,7.60
2018-05-29T14:34:07.155Z,6.70
2018-05-29T14:37:09.513Z,6.97
2018-05-29T14:39:54.635Z,6.83
2018-05-29T14:42:49.470Z,6.77
2018-05-29T14:46:04.401Z,7.10
2018-05-29T14:54:01.163Z,9.30
2018-05-29T14:57:08.698Z,8.87
2018-05-29T14:59:53.301Z,8.77
2018-05-29T15:02:24.436Z,9.73
2018-05-29T15:05:26.557Z,10.20
2018-05-29T15:08:08.474Z,10.33
2018-05-29T15:11:01.784Z,9.47
2018-05-29T15:13:40.620Z,11.37
2018-05-29T15:16:40.186Z,10.80
2018-05-29T15:19:24.163Z,10.53
2018-05-29T15:22:11.837Z,11.20
2018-05-29T15:24:43.651Z,10.93
2018-05-29T15:27:22.406Z,11.30
2018-05-29T15:30:11.300Z,9.43
2018-05-29T15:32:55.399Z,10.13
2018-05-29T15:35:24.980Z,9.50
2018-05-29T15:37:56.066Z,10.00
2018-05-29T15:40:27.870Z,9.87
2018-05-29T15:45:05.992Z,9.07
2018-05-29T15:47:36.595Z,9.07
2018-05-29T15:50:08.364Z,9.30
2018-05-29T15:52:40.422Z,8.83
2018-05-29T15:55:11.241Z,10.07
2018-05-29T15:57:41.377Z,9.03
2018-05-29T16:00:14.283Z,8.57
2018-05-29T16:02:47.693Z,8.93
2018-05-29T16:05:21.209Z,8.80
2018-05-29T16:07:51.090Z,9.87
2018-05-29T16:10:21.070Z,10.00
2018-05-29T16:12:51.803Z,9.37
2018-05-29T16:15:26.151Z,9.47
2018-05-29T16:17:55.751Z,9.07
2018-05-29T16:20:29.449Z,9.40
2018-05-29T16:23:02.957Z,9.20
2018-05-29T16:25:43.956Z,9.80
2018-05-29T16:28:14.634Z,8.63
2018-05-29T16:30:46.293Z,10.03
2018-05-29T16:33:18.414Z,9.30
2018-05-29T16:35:48.949Z,9.93
2018-05-29T16:38:20.924Z,9.77
2018-05-29T16:40:52.686Z,9.47
2018-05-29T16:43:25.354Z,10.10
2018-05-29T16:45:55.975Z,10.07
2018-05-29T16:48:26.315Z,9.90
2018-05-29T16:50:57.264Z,9.67
2018-05-29T16:53:29.043Z,9.20
2018-05-29T16:55:59.718Z,10.43
2018-05-29T16:58:33.613Z,9.93
2018-05-29T17:01:06.421Z,8.97
2018-05-29T17:03:42.960Z,9.77
2018-05-29T17:06:19.604Z,9.73
2018-05-29T17:08:49.548Z,9.67
2018-05-29T17:11:23.242Z,10.37
2018-05-29T17:13:58.444Z,10.00
2018-05-29T17:16:31.577Z,10.20
2018-05-29T17:19:04.566Z,9.70
2018-05-29T17:21:34.442Z,10.07
2018-05-29T17:24:12.851Z,9.80
2018-05-29T17:26:54.553Z,9.90
2018-05-29T17:29:26.211Z,10.83
2018-05-29T17:31:56.065Z,10.87
2018-05-29T17:34:29.897Z,10.23
2018-05-29T17:37:10.969Z,11.13
2018-05-29T17:39:51.185Z,10.73
2018-05-29T17:42:25.101Z,10.80
2018-05-29T17:44:56.237Z,10.87
2018-05-29T17:47:34.065Z,9.90
2018-05-29T17:50:07.087Z,11.03
2018-05-29T17:52:37.119Z,11.90
2018-05-29T17:55:11.705Z,10.57
2018-05-29T17:57:43.633Z,10.93
2018-05-29T18:00:26.092Z,9.90
2018-05-29T18:02:58.657Z,11.23
2018-05-29T18:05:32.852Z,11.17
2018-05-29T18:08:06.823Z,10.50
2018-05-29T18:10:47.355Z,10.63
2018-05-29T18:13:20.508Z,11.63
2018-05-29T18:15:56.657Z,10.90
2018-05-29T18:18:29.221Z,11.63
2018-05-29T18:21:05.937Z,11.00
2018-05-29T18:23:45.939Z,11.43
2018-05-29T18:26:21.371Z,11.20
2018-05-29T18:28:54.673Z,11.23
2018-05-29T18:31:36.329Z,10.43
2018-05-29T18:34:09.105Z,11.23
2018-05-29T18:36:42.598Z,12.10
2018-05-29T18:39:14.977Z,12.33
2018-05-29T18:41:50.887Z,11.57
2018-05-29T18:44:24.111Z,11.20
2018-05-29T18:46:57.725Z,11.03
2018-05-29T18:49:32.390Z,11.37
2018-05-29T18:52:05.038Z,10.80
2018-05-29T18:54:36.373Z,11.30
2018-05-29T18:57:09.702Z,11.57
2018-05-29T18:59:44.067Z,10.97
2018-05-29T19:02:14.854Z,11.97
2018-05-29T19:04:47.291Z,11.97
2018-05-29T19:07:17.533Z,13.10
2018-05-29T19:09:47.492Z,12.73
2018-05-29T19:12:17.114Z,13.00
2018-05-29T19:14:48.479Z,13.00
2018-05-29T19:17:23.379Z,13.50
2018-05-29T19:19:56.919Z,14.30
2018-05-29T19:22:31.927Z,14.70
2018-05-29T19:25:05.559Z,14.70
2018-05-29T19:27:37.556Z,14.33
2018-05-29T19:30:10.765Z,15.07
2018-05-29T19:32:50.870Z,16.27
2018-05-29T19:38:15.898Z,16.23
2018-05-29T19:40:47.367Z,16.10
2018-05-29T19:43:18.582Z,17.13
2018-05-29T19:45:51.253Z,17.23
2018-05-29T19:48:26.886Z,16.33
2018-05-29T19:51:02.501Z,17.13
2018-05-29T19:53:32.810Z,17.93
2018-05-29T19:56:03.753Z,17.83
2018-05-29T19:58:35.596Z,17.23
2018-05-29T20:01:31.986Z,17.87
2018-05-29T20:04:07.963Z,17.33
2018-05-29T20:06:38.051Z,18.73
2018-05-29T20:09:13.165Z,18.23
2018-05-29T20:11:44.178Z,19.20
2018-05-29T20:14:18.547Z,19.20
2018-05-29T20:16:56.906Z,18.00
2018-05-29T20:19:29.516Z,18.27
2018-05-29T20:22:02.123Z,18.23
2018-05-29T20:24:33.732Z,18.33
2018-05-29T20:27:05.421Z,18.53
2018-05-29T20:29:41.264Z,18.37
2018-05-29T20:32:13.158Z,17.53
2018-05-29T20:34:44.962Z,17.50
2018-05-29T20:37:16.984Z,18.10
2018-05-29T20:40:06.918Z,17.87
2018-05-29T20:42:38.201Z,18.13
2018-05-29T20:45:23.744Z,17.17
2018-05-29T20:47:57.207Z,16.60
2018-05-29T20:50:34.004Z,16.83
2018-05-29T20:53:04.410Z,17.37
2018-05-29T20:55:33.885Z,16.53
2018-05-29T20:58:04.607Z,16.40
2018-05-29T21:00:35.571Z,15.17
2018-05-29T21:03:05.450Z,15.13
2018-05-29T21:05:36.117Z,14.50
2018-05-29T21:10:46.574Z,14.67
2018-05-29T21:13:16.336Z,16.30
2018-05-29T21:15:45.992Z,16.17
2018-05-29T21:18:15.860Z,15.80
2018-05-29T21:20:47.039Z,16.67
2018-05-29T21:23:19.329Z,15.97
2018-05-29T21:25:49.177Z,17.00
2018-05-29T21:28:19.762Z,17.50
2018-05-29T21:30:49.803Z,18.00
2018-05-29T21:33:19.943Z,19.20
2018-05-29T21:35:49.650Z,18.23
2018-05-29T21:38:22.900Z,19.60
2018-05-29T21:40:52.582Z,18.83
2018-05-29T21:43:23.223Z,20.13
2018-05-29T21:46:00.457Z,19.37
2018-05-29T21:48:41.593Z,19.93
2018-05-29T21:51:12.514Z,20.37
2018-05-29T21:53:52.506Z,21.67
2018-05-29T21:56:25.170Z,21.23
2018-05-29T21:58:55.661Z,21.47
2018-05-29T22:01:33.699Z,20.20
2018-05-29T22:04:05.295Z,20.17
2018-05-29T22:06:37.179Z,18.30
2018-05-29T22:09:17.478Z,18.07
2018-05-29T22:11:49.146Z,19.27
2018-05-29T22:14:22.741Z,16.97
2018-05-29T22:16:52.357Z,18.23
2018-05-29T22:19:23.408Z,17.50
2018-05-29T22:22:00.878Z,16.93
2018-05-29T22:24:42.187Z,17.87
2018-05-29T22:27:12.312Z,17.33
2018-05-29T22:29:41.486Z,17.00
2018-05-29T22:32:10.370Z,17.17
2018-05-29T22:34:43.939Z,16.37
2018-05-29T22:37:14.916Z,17.03
2018-05-29T22:39:43.906Z,17.23
2018-05-29T22:42:13.759Z,17.77
2018-05-29T22:44:47.449Z,18.37
2018-05-29T22:47:26.864Z,19.37
2018-05-29T22:49:56.293Z,19.83
2018-05-29T22:52:25.200Z,19.20
2018-05-29T22:54:54.267Z,19.77
2018-05-29T22:57:23.170Z,20.57
2018-05-29T23:00:03.982Z,19.33
2018-05-29T23:02:35.578Z,19.47
2018-05-29T23:05:06.990Z,18.33
2018-05-29T23:07:36.703Z,18.37
2018-05-29T23:10:06.546Z,17.87
2018-05-29T23:12:35.507Z,17.40
2018-05-29T23:15:10.822Z,16.93
2018-05-29T23:17:45.581Z,16.83
2018-05-29T23:20:15.929Z,16.33
2018-05-29T23:22:44.815Z,15.27
2018-05-29T23:25:13.758Z,16.50
2018-05-29T23:27:43.001Z,16.37
2018-05-29T23:32:53.223Z,15.93
2018-05-29T23:35:31.069Z,15.73
2018-05-29T23:38:03.041Z,16.03
2018-05-29T23:40:42.694Z,15.27
2018-05-29T23:43:21.300Z,16.07
2018-05-29T23:45:50.623Z,15.90
2018-05-29T23:48:19.547Z,17.20
2018-05-29T23:50:49.358Z,17.03
2018-05-29T23:53:19.077Z,16.30
2018-05-29T23:55:49.044Z,15.63
2018-05-29T23:58:19.761Z,15.60
